Time;durP1;ratioP1;P1;durP2;ratioP2;P2;SDS_P1;SDS_P2;PMS_P1;PMS_P2;Temp;Humidity;BMP_temperature;BMP_pressure;BME280_temperature;BME280_humidity;BME280_pressure;Samples;Min_cycle;Max_cycle;Signal;HPM_P1;HPM_P2
2022/12/07 00:01:21;;;;;;;24.83;10.77;;;2.00;99.90;;;;;;5032763;28;20797;-46
2022/12/07 00:03:48;;;;;;;23.85;12.02;;;2.10;99.90;;;;;;5032495;28;20028;-42
2022/12/07 00:06:16;;;;;;;29.38;14.48;;;2.10;99.90;;;;;;5032544;28;20029;-43
2022/12/07 00:08:42;;;;;;;43.83;17.40;;;2.10;99.90;;;;;;5032446;28;20109;-51
2022/12/07 00:11:13;;;;;;;49.28;17.98;;;2.20;99.90;;;;;;5032379;28;20113;-46
2022/12/07 00:13:40;;;;;;;52.22;19.25;;;2.20;99.90;;;;;;5032758;28;20017;-41
2022/12/07 00:16:12;;;;;;;42.83;17.50;;;2.30;99.90;;;;;;5031967;28;20467;-40
2022/12/07 00:18:38;;;;;;;42.15;17.02;;;2.30;99.90;;;;;;5032525;28;20017;-51
2022/12/07 00:21:06;;;;;;;43.80;16.80;;;2.40;99.90;;;;;;5032221;28;20041;-41
2022/12/07 00:23:33;;;;;;;39.67;15.60;;;2.40;99.90;;;;;;5032321;28;20051;-41
2022/12/07 00:26:10;;;;;;;33.80;14.88;;;2.40;99.90;;;;;;5032472;28;20056;-45
2022/12/07 00:28:35;;;;;;;26.60;11.90;;;2.40;99.90;;;;;;5032265;28;20144;-43
2022/12/07 00:31:02;;;;;;;30.20;12.30;;;2.40;99.90;;;;;;5032499;28;20415;-48
2022/12/07 00:33:28;;;;;;;39.20;14.60;;;2.50;99.90;;;;;;5032170;28;20061;-48
2022/12/07 00:35:58;;;;;;;41.03;15.50;;;2.50;99.90;;;;;;5031748;28;20053;-51
2022/12/07 00:38:24;;;;;;;48.10;15.90;;;2.50;99.90;;;;;;5032123;28;20393;-45
2022/12/07 00:40:57;;;;;;;43.40;15.77;;;2.40;99.90;;;;;;5032013;28;20037;-43
2022/12/07 00:43:23;;;;;;;41.10;15.63;;;2.40;99.90;;;;;;5031832;28;20037;-45
2022/12/07 00:45:49;;;;;;;28.20;12.40;;;2.40;99.90;;;;;;5032008;28;20040;-50
2022/12/07 00:48:14;;;;;;;25.45;11.40;;;2.40;99.90;;;;;;5031879;28;20032;-49
2022/12/07 00:50:40;;;;;;;23.13;9.48;;;2.40;99.90;;;;;;5031895;28;20029;-47
2022/12/07 00:53:05;;;;;;;21.88;10.45;;;2.50;99.90;;;;;;5031976;28;20473;-54
2022/12/07 00:55:35;;;;;;;19.70;9.75;;;2.50;99.90;;;;;;5031582;28;20056;-42
2022/12/07 00:58:01;;;;;;;21.20;10.20;;;2.40;99.90;;;;;;5031791;28;20025;-40
2022/12/07 01:00:26;;;;;;;19.65;9.75;;;2.80;99.90;;;;;;5031597;28;20149;-49
2022/12/07 01:02:52;;;;;;;21.45;10.23;;;2.40;99.90;;;;;;5031743;28;20044;-47
2022/12/07 01:05:18;;;;;;;26.20;11.68;;;2.30;99.90;;;;;;5031180;28;20029;-48
2022/12/07 01:07:44;;;;;;;18.08;10.43;;;2.30;99.90;;;;;;5031486;28;20036;-48
2022/12/07 01:10:10;;;;;;;19.55;9.88;;;2.20;99.90;;;;;;5031450;28;20117;-46
2022/12/07 01:12:35;;;;;;;20.13;9.55;;;1.10;99.90;;;;;;5031323;28;20053;-53
2022/12/07 01:15:01;;;;;;;17.88;9.30;;;2.20;99.90;;;;;;5031422;28;20116;-43
2022/12/07 01:17:28;;;;;;;20.33;9.27;;;2.20;99.90;;;;;;5031389;28;20026;-40
2022/12/07 01:19:54;;;;;;;26.60;9.48;;;2.10;99.90;;;;;;5031204;28;20087;-40
2022/12/07 01:22:19;;;;;;;25.63;9.38;;;2.20;99.90;;;;;;5031330;28;20033;-40
2022/12/07 01:24:46;;;;;;;21.38;9.43;;;2.30;99.90;;;;;;5031092;28;20512;-41
2022/12/07 01:27:12;;;;;;;18.05;8.25;;;2.20;99.90;;;;;;5030979;28;20025;-40
2022/12/07 01:29:39;;;;;;;21.20;9.05;;;2.20;99.90;;;;;;5029589;28;20025;-47
2022/12/07 01:32:05;;;;;;;19.95;9.13;;;2.20;99.90;;;;;;5031369;28;20025;-43
2022/12/07 01:34:31;;;;;;;19.33;8.25;;;2.20;99.90;;;;;;5030836;28;20049;-39
2022/12/07 01:36:57;;;;;;;21.85;8.45;;;2.20;99.90;;;;;;5030708;28;20073;-40
2022/12/07 01:39:23;;;;;;;20.85;8.40;;;2.10;99.90;;;;;;5031022;28;20022;-39
2022/12/07 01:41:49;;;;;;;20.33;8.07;;;2.30;99.90;;;;;;5030743;28;20044;-43
2022/12/07 01:44:26;;;;;;;24.50;8.50;;;2.20;99.90;;;;;;5031004;28;20025;-41
2022/12/07 01:46:55;;;;;;;21.08;7.90;;;2.20;99.90;;;;;;5030781;28;20032;-51
2022/12/07 01:49:27;;;;;;;22.55;8.70;;;2.40;99.90;;;;;;5029653;28;20021;-48
2022/12/07 01:51:58;;;;;;;20.83;7.93;;;2.40;99.90;;;;;;5030657;28;20021;-45
2022/12/07 01:54:25;;;;;;;18.65;8.38;;;2.50;99.90;;;;;;5031082;28;20021;-49
2022/12/07 01:56:54;;;;;;;18.77;8.05;;;1.80;99.90;;;;;;5030472;28;20111;-50
2022/12/07 01:59:22;;;;;;;23.35;9.63;;;2.10;99.90;;;;;;5030722;28;20034;-43
2022/12/07 02:01:48;;;;;;;17.50;8.57;;;2.50;99.90;;;;;;5030595;28;20041;-42
2022/12/07 02:04:14;;;;;;;18.88;8.45;;;2.50;99.90;;;;;;5030378;28;20022;-41
2022/12/07 02:06:42;;;;;;;23.23;8.35;;;2.50;99.90;;;;;;5030414;28;20056;-42
2022/12/07 02:09:08;;;;;;;21.42;8.93;;;3.40;99.90;;;;;;5030460;28;20026;-56
2022/12/07 02:11:34;;;;;;;24.33;8.63;;;2.50;99.90;;;;;;5030791;28;20028;-46
2022/12/07 02:13:59;;;;;;;18.13;8.32;;;2.50;99.90;;;;;;5030960;28;20373;-40
2022/12/07 02:16:55;;;;;;;19.20;9.00;;;2.50;99.90;;;;;;5030436;28;20492;-40
2022/12/07 02:19:32;;;;;;;16.52;7.97;;;2.50;99.90;;;;;;5030659;28;20021;-42
2022/12/07 02:22:39;;;;;;;19.45;9.65;;;2.50;99.90;;;;;;5030637;28;20064;-45
2022/12/07 02:25:29;;;;;;;21.85;8.85;;;2.60;99.90;;;;;;5030436;28;20017;-41
2022/12/07 02:28:12;;;;;;;21.05;9.95;;;2.60;99.90;;;;;;5030405;28;20037;-39
2022/12/07 02:30:44;;;;;;;19.25;8.85;;;2.70;99.90;;;;;;5030528;28;20021;-49
2022/12/07 02:33:18;;;;;;;17.98;8.57;;;2.80;99.90;;;;;;5030313;28;20045;-40
2022/12/07 02:35:55;;;;;;;23.80;8.50;;;3.00;99.90;;;;;;5030198;28;20022;-40
2022/12/07 02:38:55;;;;;;;21.92;8.40;;;3.10;99.90;;;;;;5027336;28;20103;-48
2022/12/07 02:41:30;;;;;;;22.20;7.85;;;3.10;99.90;;;;;;5032467;28;20085;-42
2022/12/07 02:44:06;;;;;;;17.65;7.70;;;3.10;99.90;;;;;;5034308;28;20025;-44
2022/12/07 02:46:44;;;;;;;23.92;8.18;;;3.10;99.90;;;;;;5034127;28;20037;-48
2022/12/07 02:49:11;;;;;;;17.15;7.45;;;3.00;99.90;;;;;;5034173;28;20130;-46
2022/12/07 02:51:42;;;;;;;14.70;7.88;;;3.00;99.90;;;;;;5033979;28;20389;-41
2022/12/07 02:54:13;;;;;;;16.80;8.13;;;3.00;99.90;;;;;;5034031;28;20435;-40
2022/12/07 02:56:44;;;;;;;21.08;8.48;;;3.00;99.90;;;;;;5033839;28;20103;-48
2022/12/07 02:59:31;;;;;;;12.15;6.75;;;1.80;99.90;;;;;;5034085;28;20162;-39
2022/12/07 03:02:31;;;;;;;13.93;7.25;;;2.80;99.90;;;;;;5033967;28;20115;-42
2022/12/07 03:05:02;;;;;;;15.85;7.28;;;2.70;99.90;;;;;;5032386;28;20025;-53
2022/12/07 03:07:42;;;;;;;13.80;6.57;;;2.60;99.90;;;;;;5033822;28;20021;-44
2022/12/07 03:10:17;;;;;;;15.85;6.97;;;2.60;99.90;;;;;;5033774;28;20030;-44
2022/12/07 03:13:00;;;;;;;26.65;8.13;;;2.60;99.90;;;;;;5033382;28;20029;-46
2022/12/07 03:15:44;;;;;;;18.73;7.78;;;2.50;99.90;;;;;;5033508;28;20116;-42
2022/12/07 03:18:12;;;;;;;15.52;7.53;;;2.50;99.90;;;;;;5033539;28;20057;-44
2022/12/07 03:20:41;;;;;;;17.27;8.02;;;3.70;99.90;;;;;;5033331;28;20037;-42
2022/12/07 03:23:09;;;;;;;13.57;7.20;;;2.50;99.90;;;;;;5033276;28;20477;-50
2022/12/07 03:25:40;;;;;;;15.25;6.72;;;2.40;99.90;;;;;;5033163;28;20273;-53
2022/12/07 03:28:08;;;;;;;17.60;7.13;;;2.40;99.90;;;;;;5033221;28;20464;-54
2022/12/07 03:30:45;;;;;;;15.07;6.70;;;2.30;99.90;;;;;;5033719;28;20025;-59
2022/12/07 03:33:34;;;;;;;14.65;6.82;;;2.30;99.90;;;;;;5032947;28;20482;-51
2022/12/07 03:36:11;;;;;;;13.45;6.70;;;2.30;99.90;;;;;;5033356;28;20144;-42
2022/12/07 03:38:52;;;;;;;12.63;6.57;;;2.30;99.90;;;;;;5032867;28;20181;-40
2022/12/07 03:41:23;;;;;;;16.67;7.50;;;2.20;99.90;;;;;;5033057;28;20073;-43
2022/12/07 03:43:49;;;;;;;17.02;6.40;;;1.90;99.90;;;;;;5032960;28;20389;-46
2022/12/07 03:46:20;;;;;;;13.02;6.88;;;2.20;99.90;;;;;;5032928;28;20431;-54
2022/12/07 03:49:05;;;;;;;17.48;7.30;;;2.20;99.90;;;;;;5032684;28;20029;-53
2022/12/07 03:51:40;;;;;;;14.40;7.22;;;2.30;99.90;;;;;;5031713;28;20026;-45
2022/12/07 03:54:19;;;;;;;13.13;6.78;;;2.20;99.90;;;;;;5032770;28;20029;-41
2022/12/07 03:56:46;;;;;;;18.60;7.35;;;1.20;99.90;;;;;;5032538;28;20057;-46
2022/12/07 03:59:14;;;;;;;13.00;7.47;;;2.10;99.90;;;;;;5032643;28;20040;-49
2022/12/07 04:01:42;;;;;;;15.55;7.20;;;2.10;99.90;;;;;;5032745;28;20033;-40
2022/12/07 04:04:08;;;;;;;15.82;7.15;;;2.10;99.90;;;;;;5031978;28;20018;-44
2022/12/07 04:06:34;;;;;;;15.23;8.73;;;2.10;99.90;;;;;;5034329;28;20048;-43
2022/12/07 04:08:59;;;;;;;17.13;7.13;;;2.10;99.90;;;;;;5051184;28;20040;-41
2022/12/07 04:11:25;;;;;;;13.85;7.35;;;2.10;99.90;;;;;;5051083;28;20039;-50
2022/12/07 04:16:34;;;;;;;20.80;7.95;;;2.60;99.90;;;;;;5029427;28;20078;-42
2022/12/07 04:19:00;;;;;;;19.73;8.80;;;2.40;99.90;;;;;;5052135;28;20414;-45
2022/12/07 04:21:25;;;;;;;20.02;9.43;;;2.60;99.90;;;;;;5052196;28;20033;-54
2022/12/07 04:23:51;;;;;;;18.38;8.48;;;2.60;99.90;;;;;;5040200;28;20022;-48
2022/12/07 04:26:17;;;;;;;19.40;9.57;;;2.70;99.90;;;;;;5049907;28;20040;-43
2022/12/07 04:28:42;;;;;;;17.90;9.32;;;2.40;99.90;;;;;;5052086;28;20103;-47
2022/12/07 04:31:08;;;;;;;20.25;9.38;;;2.70;99.90;;;;;;5044621;28;20083;-50
2022/12/07 04:33:35;;;;;;;20.80;9.27;;;2.40;99.90;;;;;;5035975;28;20025;-46
2022/12/07 04:36:00;;;;;;;23.02;9.73;;;2.80;99.90;;;;;;5038386;28;20468;-42
2022/12/07 04:38:26;;;;;;;20.27;9.23;;;3.00;99.90;;;;;;5036098;28;20019;-46
2022/12/07 04:40:51;;;;;;;22.15;9.50;;;3.00;99.90;;;;;;5040304;28;20037;-42
2022/12/07 04:43:17;;;;;;;20.75;10.02;;;3.00;99.90;;;;;;5049328;28;20423;-44
2022/12/07 04:45:47;;;;;;;18.05;9.38;;;3.00;99.90;;;;;;5051855;28;20060;-53
2022/12/07 04:48:12;;;;;;;21.05;8.95;;;3.00;99.90;;;;;;5051830;28;20024;-50
2022/12/07 04:50:38;;;;;;;17.10;8.98;;;3.00;99.90;;;;;;5051890;28;20017;-55
2022/12/07 04:53:04;;;;;;;17.15;9.57;;;3.10;99.90;;;;;;5050415;28;20029;-56
2022/12/07 04:55:29;;;;;;;22.00;9.32;;;3.10;99.90;;;;;;5051421;28;20040;-43
2022/12/07 04:57:55;;;;;;;20.90;10.07;;;3.10;99.90;;;;;;5051723;28;20032;-46
2022/12/07 05:00:21;;;;;;;19.73;9.18;;;3.10;99.90;;;;;;5051472;28;20079;-40
2022/12/07 05:02:46;;;;;;;19.02;9.75;;;3.30;99.90;;;;;;5043569;28;20113;-39
2022/12/07 05:05:12;;;;;;;23.90;9.20;;;3.20;99.90;;;;;;5045843;28;20112;-45
2022/12/07 05:07:37;;;;;;;20.17;9.40;;;3.30;99.90;;;;;;5051693;28;20021;-39
2022/12/07 05:10:04;;;;;;;23.52;9.95;;;3.40;99.90;;;;;;5051606;28;20426;-43
2022/12/07 05:12:29;;;;;;;25.25;9.73;;;3.30;99.90;;;;;;5051476;28;20075;-42
2022/12/07 05:14:55;;;;;;;17.38;9.13;;;3.40;99.90;;;;;;5040445;28;20427;-42
2022/12/07 05:17:20;;;;;;;19.38;8.88;;;3.30;99.90;;;;;;5048106;28;20116;-48
2022/12/07 05:19:46;;;;;;;20.05;8.95;;;3.30;99.90;;;;;;5051261;28;20390;-39
2022/12/07 05:22:13;;;;;;;17.48;8.25;;;3.30;99.90;;;;;;5051182;28;20079;-50
2022/12/07 05:24:38;;;;;;;24.95;9.00;;;3.30;99.90;;;;;;5051188;28;20025;-45
2022/12/07 05:27:04;;;;;;;16.95;8.23;;;3.20;99.90;;;;;;5051151;28;20032;-49
2022/12/07 05:29:30;;;;;;;19.45;9.18;;;3.20;99.90;;;;;;5051110;28;20021;-42
2022/12/07 05:31:55;;;;;;;19.23;8.60;;;3.20;99.90;;;;;;5051358;28;20704;-41
2022/12/07 05:34:21;;;;;;;16.58;7.97;;;3.20;99.90;;;;;;5038025;28;20423;-50
2022/12/07 05:36:47;;;;;;;16.65;8.00;;;3.20;99.90;;;;;;5044289;28;20028;-52
2022/12/07 05:39:12;;;;;;;17.05;8.07;;;3.20;99.90;;;;;;5049457;28;20109;-42
2022/12/07 05:44:22;;;;;;;15.45;7.70;;;3.00;99.90;;;;;;5031257;28;20039;-47
2022/12/07 05:46:48;;;;;;;21.80;9.45;;;3.30;99.90;;;;;;5030602;28;20120;-49
2022/12/07 05:49:14;;;;;;;17.25;8.13;;;3.10;99.90;;;;;;5030748;28;20053;-44
2022/12/07 05:51:39;;;;;;;19.77;9.13;;;3.00;99.90;;;;;;5042327;28;20021;-39
2022/12/07 05:54:05;;;;;;;15.90;7.82;;;3.00;99.90;;;;;;5031068;28;20389;-45
2022/12/07 05:56:30;;;;;;;16.45;8.27;;;3.00;99.90;;;;;;5030457;28;20550;-44
2022/12/07 06:01:40;;;;;;;17.85;8.88;;;3.00;99.90;;;;;;5030107;28;20044;-49
2022/12/07 06:04:06;;;;;;;19.20;8.57;;;3.00;99.90;;;;;;5030676;28;20025;-54
2022/12/07 06:06:31;;;;;;;19.45;8.75;;;3.10;99.90;;;;;;5030860;28;20053;-51
2022/12/07 06:08:57;;;;;;;19.70;8.85;;;3.10;99.90;;;;;;5030494;28;20392;-39
2022/12/07 06:14:07;;;;;;;17.50;9.27;;;3.30;99.90;;;;;;5030354;28;20040;-40
2022/12/07 06:16:32;;;;;;;16.42;9.10;;;3.40;99.90;;;;;;5062673;28;20389;-39
2022/12/07 06:18:58;;;;;;;17.33;8.85;;;3.40;99.90;;;;;;5046784;28;20032;-40
2022/12/07 06:21:25;;;;;;;21.40;9.55;;;3.40;99.90;;;;;;5050485;28;20032;-44
2022/12/07 06:23:51;;;;;;;16.98;9.27;;;3.50;99.90;;;;;;5050551;28;20029;-40
2022/12/07 06:26:17;;;;;;;20.85;9.73;;;3.50;99.90;;;;;;5050486;28;20542;-46
2022/12/07 06:28:42;;;;;;;18.50;10.52;;;3.60;99.90;;;;;;5050392;28;20025;-39
2022/12/07 06:31:08;;;;;;;21.27;10.02;;;3.60;99.90;;;;;;5040626;28;20025;-46
2022/12/07 06:33:34;;;;;;;23.70;11.27;;;3.60;99.90;;;;;;5040789;28;20089;-39
2022/12/07 06:36:00;;;;;;;24.05;11.00;;;3.60;99.90;;;;;;5050241;28;20551;-45
2022/12/07 06:38:25;;;;;;;23.40;10.52;;;3.70;99.90;;;;;;5050238;28;20078;-45
2022/12/07 06:40:51;;;;;;;18.17;10.45;;;3.70;99.90;;;;;;5050046;28;20040;-46
2022/12/07 06:43:16;;;;;;;23.85;11.57;;;4.30;99.90;;;;;;5050154;28;20479;-44
2022/12/07 06:45:42;;;;;;;18.55;9.45;;;3.70;99.90;;;;;;5050292;28;20056;-47
2022/12/07 06:48:08;;;;;;;19.70;10.30;;;3.70;99.90;;;;;;5050089;28;20024;-44
2022/12/07 06:50:33;;;;;;;22.08;10.02;;;3.70;99.90;;;;;;5050306;28;20025;-39
2022/12/07 06:52:59;;;;;;;19.77;10.10;;;3.70;99.90;;;;;;5048850;28;20472;-40
2022/12/07 06:55:25;;;;;;;20.33;10.18;;;3.70;99.90;;;;;;5050196;28;20029;-39
2022/12/07 06:57:50;;;;;;;21.27;10.05;;;3.60;99.90;;;;;;5047512;28;20073;-46
2022/12/07 07:00:16;;;;;;;19.15;9.77;;;3.60;99.90;;;;;;5041933;28;20041;-46
2022/12/07 07:02:42;;;;;;;22.52;9.90;;;3.60;99.90;;;;;;5050316;28;20104;-43
2022/12/07 07:05:08;;;;;;;21.05;10.30;;;3.60;99.90;;;;;;5049971;28;20368;-40
2022/12/07 07:07:33;;;;;;;22.17;10.23;;;3.60;99.90;;;;;;5050001;28;20387;-39
2022/12/07 07:09:59;;;;;;;21.23;10.13;;;3.60;99.90;;;;;;5049774;28;20033;-40
2022/12/07 07:12:24;;;;;;;20.88;10.38;;;3.60;99.90;;;;;;5049799;28;20032;-40
2022/12/07 07:14:50;;;;;;;18.08;9.07;;;3.60;99.90;;;;;;5039512;28;20025;-40
2022/12/07 07:17:16;;;;;;;20.27;9.20;;;3.60;99.90;;;;;;5046069;28;20027;-39
2022/12/07 07:19:41;;;;;;;30.63;11.00;;;3.60;99.90;;;;;;5049729;28;20100;-39
2022/12/07 07:22:07;;;;;;;22.13;9.60;;;3.60;99.90;;;;;;5049679;28;20040;-39
2022/12/07 07:24:33;;;;;;;19.88;9.45;;;3.60;99.90;;;;;;5046926;28;20036;-40
2022/12/07 07:26:58;;;;;;;19.00;9.55;;;3.60;99.90;;;;;;5044072;28;20507;-41
2022/12/07 07:29:24;;;;;;;20.70;9.68;;;3.50;99.90;;;;;;5042023;28;20021;-46
2022/12/07 07:31:49;;;;;;;25.67;10.30;;;3.50;99.90;;;;;;5038111;28;20057;-48
2022/12/07 07:34:15;;;;;;;19.95;9.85;;;3.50;99.90;;;;;;5033158;28;20018;-51
2022/12/07 07:36:40;;;;;;;20.23;9.88;;;3.50;99.90;;;;;;5033160;28;20021;-51
2022/12/07 07:39:06;;;;;;;23.65;10.48;;;3.50;99.90;;;;;;5033138;28;20412;-46
2022/12/07 07:41:32;;;;;;;18.92;9.38;;;4.80;99.90;;;;;;5065026;28;20045;-45
2022/12/07 07:43:57;;;;;;;22.85;10.60;;;3.40;99.90;;;;;;5033052;28;20071;-42
2022/12/07 07:46:23;;;;;;;25.80;11.27;;;3.50;99.90;;;;;;5032812;28;20026;-39
2022/12/07 07:48:48;;;;;;;27.80;11.88;;;3.50;99.90;;;;;;5033101;28;20009;-44
2022/12/07 07:51:14;;;;;;;21.50;10.32;;;3.60;99.90;;;;;;5050199;28;20065;-47
2022/12/07 07:53:40;;;;;;;23.45;10.50;;;3.60;99.90;;;;;;5044978;28;20484;-46
2022/12/07 07:56:06;;;;;;;28.45;10.13;;;3.60;99.90;;;;;;5032844;28;20077;-55
2022/12/07 07:58:31;;;;;;;19.95;9.40;;;3.60;99.90;;;;;;5032916;28;20465;-55
2022/12/07 08:01:03;;;;;;;19.65;9.20;;;3.70;99.90;;;;;;5032313;28;20072;-41
2022/12/07 08:03:28;;;;;;;21.85;9.80;;;3.70;99.90;;;;;;5032809;28;20018;-52
2022/12/07 08:05:54;;;;;;;17.15;8.80;;;3.70;99.90;;;;;;5032810;28;20512;-53
2022/12/07 08:08:19;;;;;;;19.08;9.40;;;3.70;99.90;;;;;;5045742;28;20065;-50
2022/12/07 08:10:45;;;;;;;16.30;8.27;;;3.80;99.90;;;;;;5032617;28;20098;-45
2022/12/07 08:13:11;;;;;;;16.88;8.23;;;3.80;99.90;;;;;;5032195;28;20029;-39
2022/12/07 08:15:38;;;;;;;16.88;9.10;;;3.80;99.90;;;;;;5035159;28;20038;-42
2022/12/07 08:18:04;;;;;;;15.57;8.35;;;3.80;99.90;;;;;;5051634;28;20476;-45
2022/12/07 08:20:32;;;;;;;15.55;8.27;;;3.80;99.90;;;;;;5049726;28;20178;-39
2022/12/07 08:22:58;;;;;;;15.85;9.02;;;3.80;99.90;;;;;;5042373;28;20026;-50
2022/12/07 08:25:24;;;;;;;17.10;7.57;;;3.80;99.90;;;;;;5032337;28;20397;-45
2022/12/07 08:27:51;;;;;;;17.23;8.27;;;3.90;99.90;;;;;;5031922;28;20076;-46
2022/12/07 08:30:18;;;;;;;17.02;8.05;;;3.90;99.90;;;;;;5032038;28;20083;-45
2022/12/07 08:32:47;;;;;;;22.73;7.72;;;3.90;99.90;;;;;;5031637;28;20469;-48
2022/12/07 08:35:14;;;;;;;13.65;7.47;;;4.00;99.90;;;;;;5031328;28;20029;-51
2022/12/07 08:37:40;;;;;;;16.52;7.90;;;4.00;99.90;;;;;;5046518;28;20033;-52
2022/12/07 08:40:07;;;;;;;15.02;6.40;;;4.00;99.90;;;;;;5047041;28;20037;-50
2022/12/07 08:42:39;;;;;;;12.27;6.25;;;4.00;99.90;;;;;;5050045;28;20029;-46
2022/12/07 08:45:11;;;;;;;12.60;7.28;;;4.00;99.90;;;;;;5045732;28;20025;-50
2022/12/07 08:47:40;;;;;;;14.15;6.93;;;4.00;99.90;;;;;;5050414;28;20032;-45
2022/12/07 08:50:08;;;;;;;17.67;7.82;;;4.10;99.90;;;;;;5044159;28;20032;-47
2022/12/07 08:52:35;;;;;;;19.65;8.00;;;4.00;99.90;;;;;;5031419;28;20076;-43
2022/12/07 08:55:02;;;;;;;18.83;8.55;;;4.10;99.90;;;;;;5033470;28;20542;-42
2022/12/07 08:57:28;;;;;;;14.63;7.88;;;4.10;99.90;;;;;;5042254;28;20076;-41
2022/12/07 08:59:54;;;;;;;11.65;6.93;;;4.20;99.90;;;;;;5035983;28;20132;-49
2022/12/07 09:02:19;;;;;;;14.65;6.75;;;4.20;99.90;;;;;;5040194;28;20531;-42
2022/12/07 09:04:45;;;;;;;15.00;8.18;;;4.30;99.90;;;;;;5041867;28;20032;-40
2022/12/07 09:07:11;;;;;;;17.17;7.45;;;4.40;99.90;;;;;;5035267;28;20036;-41
2022/12/07 09:09:36;;;;;;;12.52;7.07;;;4.40;99.90;;;;;;5036583;28;20070;-45
2022/12/07 09:12:02;;;;;;;14.52;7.43;;;4.50;99.90;;;;;;5042536;28;20095;-46
2022/12/07 09:14:28;;;;;;;16.50;7.00;;;4.80;99.90;;;;;;5042742;28;20039;-42
2022/12/07 09:16:54;;;;;;;14.48;7.50;;;4.60;99.90;;;;;;5042379;28;20048;-50
2022/12/07 09:19:19;;;;;;;22.67;9.88;;;4.70;99.90;;;;;;5030592;28;20140;-40
2022/12/07 09:21:45;;;;;;;21.98;9.10;;;4.80;99.90;;;;;;5029926;28;20477;-40
2022/12/07 09:24:12;;;;;;;23.30;9.60;;;4.90;99.90;;;;;;5041406;28;20041;-40
2022/12/07 09:26:40;;;;;;;13.07;7.20;;;4.90;99.90;;;;;;5035584;28;20029;-40
2022/12/07 09:29:06;;;;;;;16.35;7.38;;;4.90;99.90;;;;;;5033624;28;20531;-40
2022/12/07 09:31:31;;;;;;;13.52;7.18;;;5.00;99.90;;;;;;5032698;28;20059;-44
2022/12/07 09:33:59;;;;;;;16.45;7.07;;;5.20;99.90;;;;;;5037061;28;20025;-40
2022/12/07 09:36:25;;;;;;;15.30;7.68;;;5.20;99.90;;;;;;5031916;28;20481;-44
2022/12/07 09:38:51;;;;;;;30.13;10.73;;;5.40;99.90;;;;;;5034488;28;20032;-40
2022/12/07 09:41:17;;;;;;;18.58;7.95;;;5.60;99.90;;;;;;5032594;28;20037;-43
2022/12/07 09:43:43;;;;;;;14.30;5.80;;;5.80;99.90;;;;;;5036241;28;20024;-48
2022/12/07 09:46:15;;;;;;;11.20;5.47;;;5.90;99.90;;;;;;5037817;28;20104;-40
2022/12/07 09:48:42;;;;;;;13.13;6.30;;;6.00;99.90;;;;;;5043822;28;20033;-44
2022/12/07 09:51:20;;;;;;;13.63;5.55;;;6.30;99.90;;;;;;5037759;28;20025;-43
2022/12/07 09:53:47;;;;;;;16.73;5.80;;;6.60;99.90;;;;;;5041832;28;20115;-39
2022/12/07 09:56:17;;;;;;;12.27;5.95;;;6.90;99.90;;;;;;5043154;28;20118;-40
2022/12/07 09:58:44;;;;;;;14.60;5.20;;;6.90;99.90;;;;;;5044075;28;20040;-46
2022/12/07 10:01:15;;;;;;;10.50;4.47;;;7.00;99.90;;;;;;5046191;28;20033;-44
2022/12/07 10:03:48;;;;;;;13.63;4.97;;;7.00;99.90;;;;;;5039279;28;20025;-41
2022/12/07 10:06:14;;;;;;;10.35;5.30;;;6.80;99.90;;;;;;5034882;28;20025;-37
2022/12/07 10:08:41;;;;;;;14.25;4.57;;;8.10;99.90;;;;;;5042585;28;20031;-41
2022/12/07 10:11:10;;;;;;;13.15;4.93;;;6.80;99.90;;;;;;5043732;28;20032;-40
2022/12/07 10:13:48;;;;;;;12.27;5.07;;;6.60;99.90;;;;;;5045103;28;20027;-41
2022/12/07 10:16:39;;;;;;;8.48;4.93;;;6.50;99.90;;;;;;5036182;28;20070;-44
2022/12/07 10:19:18;;;;;;;18.48;6.28;;;6.10;99.90;;;;;;5040117;28;20029;-43
2022/12/07 10:22:19;;;;;;;11.10;5.10;;;5.90;99.90;;;;;;5041984;28;20037;-46
2022/12/07 10:24:47;;;;;;;10.05;5.43;;;5.80;99.90;;;;;;5038544;28;20051;-44
2022/12/07 10:27:30;;;;;;;9.38;5.10;;;5.80;99.90;;;;;;5035295;28;20033;-42
2022/12/07 10:29:58;;;;;;;12.95;5.70;;;5.90;99.90;;;;;;5039440;28;20029;-42
2022/12/07 10:32:36;;;;;;;9.20;5.00;;;6.30;99.90;;;;;;5045597;28;20495;-46
2022/12/07 10:35:25;;;;;;;14.50;5.55;;;6.70;99.90;;;;;;5046771;28;20108;-43
2022/12/07 10:37:51;;;;;;;13.52;7.20;;;7.20;99.90;;;;;;5040140;28;20166;-41
2022/12/07 10:40:31;;;;;;;11.80;5.80;;;7.40;99.90;;;;;;5042366;28;20044;-41
2022/12/07 10:43:18;;;;;;;15.88;5.53;;;7.70;99.90;;;;;;5039083;28;20033;-41
2022/12/07 10:45:50;;;;;;;13.85;6.47;;;7.90;99.90;;;;;;5044944;28;20492;-40
2022/12/07 10:48:54;;;;;;;19.60;7.30;;;8.00;99.90;;;;;;5046296;28;20041;-42
2022/12/07 10:51:38;;;;;;;20.20;7.43;;;8.70;99.90;;;;;;4973194;28;20031;-40
2022/12/07 10:54:09;;;;;;;20.30;7.07;;;9.10;99.90;;;;;;4978929;28;20027;-41
2022/12/07 10:57:08;;;;;;;21.23;6.30;;;10.30;99.90;;;;;;5036882;28;20065;-44
2022/12/07 10:59:40;;;;;;;12.52;6.10;;;11.70;99.90;;;;;;5031692;28;20033;-43
2022/12/07 11:02:20;;;;;;;13.73;4.45;;;13.20;98.60;;;;;;5043864;28;20060;-44
2022/12/07 11:05:08;;;;;;;13.05;5.03;;;15.40;94.80;;;;;;5050162;28;20470;-42
2022/12/07 11:07:47;;;;;;;8.77;3.75;;;15.80;89.30;;;;;;5047440;28;20029;-43
2022/12/07 11:10:29;;;;;;;7.05;3.67;;;15.60;83.30;;;;;;5045132;28;20032;-49
2022/12/07 11:13:12;;;;;;;7.63;3.63;;;14.90;84.20;;;;;;5045321;28;20052;-55
2022/12/07 11:15:59;;;;;;;5.93;3.50;;;14.40;84.00;;;;;;5040784;28;20025;-46
2022/12/07 11:18:59;;;;;;;11.20;4.75;;;13.30;87.30;;;;;;5036721;28;20071;-42
2022/12/07 11:21:33;;;;;;;;;;;12.30;88.00;;;;;;5039414;28;20029;-43
2022/12/07 11:24:11;;;;;;;7.95;4.07;;;11.90;92.00;;;;;;5079049;28;19919;-51
2022/12/07 11:26:55;;;;;;;10.48;4.00;;;12.90;91.90;;;;;;5047308;28;20100;-42
2022/12/07 11:29:51;;;;;;;6.03;3.55;;;14.00;89.00;;;;;;5039032;28;20068;-50
2022/12/07 11:32:31;;;;;;;13.80;7.13;;;15.20;84.00;;;;;;5031753;28;20112;-53
2022/12/07 11:35:03;;;;;;;8.20;4.07;;;13.50;84.10;;;;;;5025967;28;20049;-49
2022/12/07 11:37:33;;;;;;;18.90;6.32;;;12.80;85.60;;;;;;5032835;28;20028;-46
2022/12/07 11:40:23;;;;;;;9.77;4.45;;;12.60;90.10;;;;;;5041303;28;20040;-54
2022/12/07 11:42:53;;;;;;;9.50;4.55;;;14.00;86.90;;;;;;5046327;28;20037;-48
2022/12/07 11:45:32;;;;;;;9.30;3.83;;;14.60;85.90;;;;;;5041417;28;20074;-47
2022/12/07 11:48:04;;;;;;;9.13;3.40;;;16.30;77.10;;;;;;5028170;28;20025;-43
2022/12/07 11:50:36;;;;;;;6.05;3.00;;;16.40;77.70;;;;;;5032771;28;20033;-52
2022/12/07 11:53:05;;;;;;;7.05;3.33;;;16.70;74.70;;;;;;5038145;28;20029;-47
2022/12/07 11:55:51;;;;;;;7.20;4.00;;;16.00;75.10;;;;;;5039898;28;20479;-43
2022/12/07 11:58:44;;;;;;;6.28;3.28;;;14.90;78.90;;;;;;5032108;28;20112;-54
2022/12/07 12:01:28;;;;;;;7.18;3.50;;;15.00;77.50;;;;;;5028492;28;20037;-46
2022/12/07 12:03:56;;;;;;;7.43;5.18;;;14.60;77.90;;;;;;5042867;28;20053;-40
2022/12/07 12:06:22;;;;;;;8.10;5.13;;;14.70;81.40;;;;;;5044253;28;20035;-40
2022/12/07 12:09:25;;;;;;;9.27;5.55;;;15.90;77.10;;;;;;5047466;28;20351;-43
2022/12/07 12:12:18;;;;;;;10.30;5.50;;;17.10;74.60;;;;;;5040262;28;20110;-41
2022/12/07 12:15:21;;;;;;;8.88;5.43;;;18.10;69.30;;;;;;5044917;28;20029;-40
2022/12/07 12:17:59;;;;;;;7.85;4.57;;;16.40;71.70;;;;;;5042927;28;20175;-41
2022/12/07 12:20:40;;;;;;;8.45;4.25;;;16.70;73.30;;;;;;5036727;28;20041;-41
2022/12/07 12:23:39;;;;;;;9.63;5.93;;;16.70;72.60;;;;;;5038815;28;20121;-44
2022/12/07 12:26:13;;;;;;;9.30;6.57;;;16.20;71.20;;;;;;5036132;28;20034;-40
2022/12/07 12:28:53;;;;;;;9.90;6.07;;;15.30;72.50;;;;;;5038830;28;20499;-46
2022/12/07 12:31:21;;;;;;;10.90;5.93;;;14.40;74.10;;;;;;5032545;28;20083;-41
2022/12/07 12:33:52;;;;;;;9.18;5.30;;;13.80;76.60;;;;;;5031360;28;20028;-46
2022/12/07 12:36:44;;;;;;;9.20;5.85;;;12.90;79.00;;;;;;5043140;28;20025;-46
2022/12/07 12:39:14;;;;;;;10.02;5.68;;;12.60;82.10;;;;;;5029721;28;20104;-42
2022/12/07 12:44:14;;;;;;;11.85;6.72;;;14.10;79.60;;;;;;5039838;28;20033;-50
2022/12/07 12:47:03;;;;;;;9.70;4.90;;;14.90;75.10;;;;;;5045180;28;20426;-43
2022/12/07 12:49:28;;;;;;;8.23;4.68;;;16.80;71.80;;;;;;5049382;28;20412;-38
2022/12/07 12:51:55;;;;;;;8.98;5.30;;;17.60;69.50;;;;;;5050490;28;20040;-40
2022/12/07 12:54:28;;;;;;;9.77;4.57;;;17.90;68.30;;;;;;5048076;28;20388;-46
2022/12/07 12:57:09;;;;;;;13.27;4.95;;;18.70;66.30;;;;;;5046787;28;20060;-52
2022/12/07 13:00:15;;;;;;;7.43;4.90;;;18.60;65.70;;;;;;5043782;28;20033;-41
2022/12/07 13:02:54;;;;;;;7.32;4.75;;;19.00;67.10;;;;;;5033909;28;20124;-44
2022/12/07 13:05:27;;;;;;;10.95;5.13;;;19.30;63.00;;;;;;5027243;28;20025;-48
2022/12/07 13:08:04;;;;;;;9.57;5.70;;;18.00;63.10;;;;;;5027541;28;20484;-43
2022/12/07 13:10:38;;;;;;;7.22;5.10;;;17.60;66.20;;;;;;5027762;28;20057;-40
2022/12/07 13:13:13;;;;;;;9.45;5.65;;;16.50;67.60;;;;;;5026069;28;20048;-40
2022/12/07 13:15:48;;;;;;;9.30;5.72;;;14.70;69.50;;;;;;5032392;28;20041;-41
2022/12/07 13:18:23;;;;;;;8.95;5.65;;;13.70;73.80;;;;;;5051120;28;20105;-50